KSSC/SSC METAR and TAF weather

Enter ICAO airport designator
Station Type Date Time Source
KSSC METAR 2019/10/23 19:56 UTC NOAA

KSSC 231956Z AUTO 27003KT 10SM CLR 23/02 A3012 RMK AO2 SLP200 T02260021


Station Type Date Time Source
KSSC Decoded METAR 2019/10/23 19:56 UTC NOAA

Shaw Air Force Base, SC, United States (KSSC) 33-58N 080-29W 73M
Oct 23, 2019 - 03:56 PM EDT / 2019.10.23 1956 UTC
Wind: from the W (270 degrees) at 3 MPH (3 KT):0
Visibility: 10 mile(s):0
Sky conditions: clear
Temperature: 72.7 F (22.6 C)
Dew Point: 35.8 F (2.1 C)
Relative Humidity: 25%
Pressure (altimeter): 30.12 in. Hg (1019 hPa)
ob: KSSC 231956Z AUTO 27003KT 10SM CLR 23/02 A3012 RMK AO2 SLP200 T02260021
cycle: 20

Station Type Date Time Source
KSSC TAF 2019/10/23 15:59 UTC NOAA

TAF KSSC 231500Z 2315/2421 01009KT 9999 SKC QNH3012INS
TEMPO 2315/2318 01010G15KT
BECMG 2322/2323 04006KT 9999 SKC QNH3017INS
BECMG 2414/2415 05009KT 9999 FEW035 QNH3028INS TX24/2320Z TN08/2411Z

Example: see airport list